createdAt,value
2023-04-09T00:00:17.640Z,0.00
2023-04-09T00:01:17.621Z,0.00
2023-04-09T00:02:17.616Z,0.00
2023-04-09T00:03:17.622Z,0.00
2023-04-09T00:04:17.566Z,0.00
2023-04-09T00:05:17.540Z,0.00
2023-04-09T00:06:17.551Z,0.00
2023-04-09T00:07:17.534Z,0.00
2023-04-09T00:08:17.594Z,0.00
2023-04-09T00:09:17.505Z,0.00
2023-04-09T00:10:17.492Z,0.00
2023-04-09T00:11:17.477Z,0.00
2023-04-09T00:12:17.488Z,0.00
2023-04-09T00:13:22.566Z,0.00
2023-04-09T00:14:17.582Z,0.00
2023-04-09T00:15:27.756Z,0.00
2023-04-09T00:16:17.472Z,0.00
2023-04-09T00:17:17.400Z,0.00
2023-04-09T00:18:17.432Z,0.00
2023-04-09T00:19:17.427Z,0.00
2023-04-09T00:20:17.385Z,0.00
2023-04-09T00:21:17.398Z,0.00
2023-04-09T00:22:17.360Z,0.00
2023-04-09T00:23:17.347Z,0.00
2023-04-09T00:24:17.345Z,0.00
2023-04-09T00:25:17.736Z,0.00
2023-04-09T00:26:17.319Z,0.00
2023-04-09T00:27:17.302Z,0.00
2023-04-09T00:28:17.314Z,0.00
2023-04-09T00:29:17.338Z,0.00
2023-04-09T00:30:17.276Z,0.00
2023-04-09T00:31:18.795Z,0.00
2023-04-09T00:32:17.249Z,0.00
2023-04-09T00:33:17.241Z,0.00
2023-04-09T00:34:17.291Z,0.00
2023-04-09T00:35:17.222Z,0.00
2023-04-09T00:36:17.274Z,0.00
2023-04-09T00:37:17.200Z,0.00
2023-04-09T00:38:17.199Z,0.00
2023-04-09T00:39:17.195Z,0.00
2023-04-09T00:40:17.203Z,0.00
2023-04-09T00:41:17.202Z,0.00
2023-04-09T00:42:17.157Z,0.00
2023-04-09T00:43:17.161Z,0.00
2023-04-09T00:44:17.142Z,0.00
2023-04-09T00:45:17.193Z,0.00
2023-04-09T00:46:17.159Z,0.00
2023-04-09T00:47:17.092Z,0.00
2023-04-09T00:48:17.113Z,0.00
2023-04-09T00:49:17.114Z,0.00
2023-04-09T00:50:17.116Z,0.00
2023-04-09T00:51:17.067Z,0.00
2023-04-09T00:52:17.062Z,0.00
2023-04-09T00:53:17.059Z,0.00
2023-04-09T00:54:17.016Z,0.00
2023-04-09T00:55:17.017Z,0.00
2023-04-09T00:56:17.014Z,0.00
2023-04-09T00:57:16.985Z,0.00
2023-04-09T00:58:16.987Z,0.00
2023-04-09T00:59:16.979Z,0.00
2023-04-09T01:00:16.970Z,0.00
2023-04-09T01:01:17.019Z,0.00
2023-04-09T01:02:16.987Z,0.00
2023-04-09T01:03:17.046Z,0.00
2023-04-09T01:04:16.924Z,0.00
2023-04-09T01:05:16.893Z,0.00
2023-04-09T01:06:16.892Z,0.00
2023-04-09T01:07:16.914Z,0.00
2023-04-09T01:08:16.918Z,0.00
2023-04-09T01:09:16.868Z,0.00
2023-04-09T01:10:16.868Z,0.00
2023-04-09T01:11:16.840Z,0.00
2023-04-09T01:12:16.842Z,0.00
2023-04-09T01:13:16.811Z,0.00
2023-04-09T01:14:16.815Z,0.00
2023-04-09T01:15:16.812Z,0.00
2023-04-09T01:16:16.852Z,0.00
2023-04-09T01:17:16.774Z,0.00
2023-04-09T01:18:16.765Z,0.00
2023-04-09T01:19:16.759Z,0.00
2023-04-09T01:20:16.772Z,0.00
2023-04-09T01:21:16.733Z,0.00
2023-04-09T01:22:16.721Z,0.00
2023-04-09T01:23:16.729Z,0.00
2023-04-09T01:24:16.710Z,0.00
2023-04-09T01:25:16.697Z,0.00
2023-04-09T01:26:16.690Z,0.00
2023-04-09T01:27:16.673Z,0.00
2023-04-09T01:28:16.663Z,0.00
2023-04-09T01:29:16.644Z,0.00
2023-04-09T01:30:16.641Z,0.00
2023-04-09T01:31:16.645Z,0.00
2023-04-09T01:32:16.626Z,0.00
2023-04-09T01:33:16.617Z,0.00
2023-04-09T01:34:16.658Z,0.00
2023-04-09T01:35:16.582Z,0.00
2023-04-09T01:36:16.686Z,0.00
2023-04-09T01:37:16.583Z,0.00
2023-04-09T01:38:16.601Z,0.00
2023-04-09T01:39:16.552Z,0.00
2023-04-09T01:40:16.525Z,0.00
2023-04-09T01:41:16.588Z,0.00
2023-04-09T01:42:16.508Z,0.00
2023-04-09T01:43:16.516Z,0.00
2023-04-09T01:44:16.489Z,0.00
2023-04-09T01:45:16.509Z,0.00
2023-04-09T01:46:16.594Z,0.00
2023-04-09T01:47:16.510Z,0.00
2023-04-09T01:48:16.496Z,0.00
2023-04-09T01:49:16.455Z,0.00
2023-04-09T01:50:16.457Z,0.00
2023-04-09T01:51:16.413Z,0.00
2023-04-09T01:52:16.409Z,0.00
2023-04-09T01:53:16.388Z,0.00
2023-04-09T01:54:16.420Z,0.00
2023-04-09T01:55:16.386Z,0.00
2023-04-09T01:56:16.409Z,0.00
2023-04-09T01:57:16.357Z,0.00
2023-04-09T01:58:16.362Z,0.00
2023-04-09T01:59:16.350Z,0.00
2023-04-09T02:00:16.340Z,0.00
2023-04-09T02:01:16.332Z,0.00
2023-04-09T02:02:16.363Z,0.00
2023-04-09T02:03:16.364Z,0.00
2023-04-09T02:04:16.314Z,0.00
2023-04-09T02:05:16.266Z,0.00
2023-04-09T02:06:16.276Z,0.00
2023-04-09T02:07:16.248Z,0.00
2023-04-09T02:08:16.242Z,0.00
2023-04-09T02:09:16.226Z,0.00
2023-04-09T02:10:16.255Z,0.00
2023-04-09T02:11:16.231Z,0.00
2023-04-09T02:12:16.193Z,0.00
2023-04-09T02:13:16.195Z,0.00
2023-04-09T02:14:16.199Z,0.00
2023-04-09T02:15:16.180Z,0.00
2023-04-09T02:16:16.232Z,0.00
2023-04-09T02:17:16.172Z,0.00
2023-04-09T02:18:16.145Z,0.00
2023-04-09T02:19:16.140Z,0.00
2023-04-09T02:20:16.124Z,0.00
2023-04-09T02:21:16.105Z,0.00
2023-04-09T02:22:16.170Z,0.00
2023-04-09T02:23:16.092Z,0.00
2023-04-09T02:24:16.091Z,0.00
2023-04-09T02:25:16.074Z,0.00
2023-04-09T02:26:16.072Z,0.00
2023-04-09T02:27:16.040Z,0.00
2023-04-09T02:28:16.028Z,0.00
2023-04-09T02:29:16.022Z,0.00
2023-04-09T02:30:15.996Z,0.00
2023-04-09T02:31:16.052Z,0.00
2023-04-09T02:32:16.005Z,0.00
2023-04-09T02:33:15.969Z,0.00
2023-04-09T02:34:15.987Z,0.00
2023-04-09T02:35:16.002Z,0.00
2023-04-09T02:36:16.045Z,0.00
2023-04-09T02:37:15.941Z,0.00
2023-04-09T02:38:16.063Z,0.00
2023-04-09T02:39:15.921Z,0.00
2023-04-09T02:40:15.919Z,0.00
2023-04-09T02:41:15.913Z,0.00
2023-04-09T02:42:15.897Z,0.00
2023-04-09T02:43:15.890Z,0.00
2023-04-09T02:44:15.921Z,0.00
2023-04-09T02:45:15.850Z,0.00
2023-04-09T02:46:15.881Z,0.00
2023-04-09T02:47:15.848Z,0.00
2023-04-09T02:48:15.820Z,0.00
2023-04-09T02:49:15.855Z,0.00
2023-04-09T02:50:15.814Z,0.00
2023-04-09T02:51:15.858Z,0.00
2023-04-09T02:52:15.775Z,0.00
2023-04-09T02:53:15.764Z,0.00
2023-04-09T02:54:15.796Z,0.00
2023-04-09T02:55:15.776Z,0.00
2023-04-09T02:56:15.737Z,0.00
2023-04-09T02:57:15.775Z,0.00
2023-04-09T02:58:15.717Z,0.00
2023-04-09T02:59:15.722Z,0.00
2023-04-09T03:00:15.725Z,0.00
2023-04-09T03:01:15.715Z,0.00
2023-04-09T03:02:15.816Z,0.00
2023-04-09T03:03:15.847Z,0.00
2023-04-09T03:04:15.824Z,0.00
2023-04-09T03:05:15.695Z,0.00
2023-04-09T03:06:15.639Z,0.00
2023-04-09T03:07:15.665Z,0.00
2023-04-09T03:08:15.649Z,0.00
2023-04-09T03:09:15.638Z,0.00
2023-04-09T03:10:15.594Z,0.00
2023-04-09T03:11:15.586Z,0.00
2023-04-09T03:12:15.587Z,0.00
2023-04-09T03:13:15.577Z,0.00
2023-04-09T03:14:15.575Z,0.00
2023-04-09T03:15:15.584Z,0.00
2023-04-09T03:16:15.624Z,0.00
2023-04-09T03:17:15.552Z,0.00
2023-04-09T03:18:15.505Z,0.00
2023-04-09T03:19:15.501Z,0.00
2023-04-09T03:20:15.502Z,0.00
2023-04-09T03:21:15.487Z,0.00
2023-04-09T03:22:15.464Z,0.00
2023-04-09T03:23:15.454Z,0.00
2023-04-09T03:24:15.463Z,0.00
2023-04-09T03:25:15.460Z,0.00
2023-04-09T03:26:15.444Z,0.00
2023-04-09T03:27:15.413Z,0.00
2023-04-09T03:28:15.407Z,0.00
2023-04-09T03:29:15.386Z,0.00
2023-04-09T03:30:15.369Z,0.00
2023-04-09T03:31:15.405Z,0.00
2023-04-09T03:32:17.293Z,0.00
2023-04-09T03:33:15.344Z,0.00
2023-04-09T03:34:15.332Z,0.00
2023-04-09T03:35:15.318Z,0.00
2023-04-09T03:36:15.404Z,0.00
2023-04-09T03:37:15.308Z,0.00
2023-04-09T03:38:15.296Z,0.00
2023-04-09T03:39:15.276Z,0.00
2023-04-09T03:40:15.263Z,0.00
2023-04-09T03:41:15.255Z,0.00
2023-04-09T03:42:15.258Z,0.00
2023-04-09T03:43:15.241Z,0.00
2023-04-09T03:44:15.233Z,0.00
2023-04-09T03:45:15.214Z,0.00
2023-04-09T03:46:15.216Z,0.00
2023-04-09T03:47:15.206Z,0.00
2023-04-09T03:48:15.242Z,0.00
2023-04-09T03:49:15.193Z,0.00
2023-04-09T03:50:15.165Z,0.00
2023-04-09T03:51:15.157Z,0.00
2023-04-09T03:52:15.129Z,0.00
2023-04-09T03:53:15.131Z,0.00
2023-04-09T03:54:15.125Z,0.00
2023-04-09T03:55:15.116Z,0.00
2023-04-09T03:56:15.107Z,0.00
2023-04-09T03:57:15.084Z,0.00
2023-04-09T03:58:15.103Z,0.00
2023-04-09T03:59:15.066Z,0.00
2023-04-09T04:00:15.066Z,0.00
2023-04-09T04:01:15.053Z,0.00
2023-04-09T04:02:15.084Z,0.00
2023-04-09T04:03:15.163Z,0.00
2023-04-09T04:04:15.230Z,0.00
2023-04-09T04:05:15.030Z,0.00
2023-04-09T04:06:14.998Z,0.00
2023-04-09T04:07:14.986Z,0.00
2023-04-09T04:08:15.012Z,0.00
2023-04-09T04:09:14.964Z,0.00
2023-04-09T04:10:14.977Z,0.00
2023-04-09T04:11:14.936Z,0.00
2023-04-09T04:12:14.919Z,0.00
2023-04-09T04:13:14.970Z,0.00
2023-04-09T04:14:14.914Z,0.00
2023-04-09T04:15:15.013Z,0.00
2023-04-09T04:16:14.920Z,0.00
2023-04-09T04:17:14.900Z,0.00
2023-04-09T04:18:14.905Z,0.00
2023-04-09T04:19:14.902Z,0.00
2023-04-09T04:20:14.849Z,0.00
2023-04-09T04:21:14.836Z,0.00
2023-04-09T04:22:14.806Z,0.00
2023-04-09T04:23:14.816Z,0.00
2023-04-09T04:24:14.806Z,0.00
2023-04-09T04:25:14.797Z,0.00
2023-04-09T04:26:14.771Z,0.00
2023-04-09T04:27:14.871Z,0.00
2023-04-09T04:28:14.746Z,0.00
2023-04-09T04:29:14.701Z,1.00
2023-04-09T04:30:14.673Z,1.00
2023-04-09T04:31:14.931Z,0.00
2023-04-09T04:32:14.708Z,0.00
2023-04-09T04:33:14.694Z,0.00
2023-04-09T04:34:14.721Z,0.00
2023-04-09T04:35:14.691Z,0.00
2023-04-09T04:36:14.714Z,0.00
2023-04-09T04:37:14.659Z,0.00
2023-04-09T04:38:14.618Z,1.00
2023-04-09T04:39:14.595Z,1.00
2023-04-09T04:40:14.623Z,0.00
2023-04-09T04:41:14.626Z,1.00
2023-04-09T04:42:14.554Z,4.00
2023-04-09T04:43:14.548Z,6.00
2023-04-09T04:44:14.667Z,5.00
2023-04-09T04:45:14.534Z,5.00
2023-04-09T04:46:14.583Z,9.00
2023-04-09T04:47:14.590Z,5.00
2023-04-09T04:48:14.491Z,2.00
2023-04-09T04:49:14.492Z,2.00
2023-04-09T04:50:14.478Z,2.00
2023-04-09T04:51:14.462Z,5.00
2023-04-09T04:52:16.061Z,7.00
2023-04-09T04:53:14.520Z,7.00
2023-04-09T04:54:14.428Z,7.00
2023-04-09T04:55:14.441Z,9.00
2023-04-09T04:56:14.410Z,10.00
2023-04-09T04:57:14.413Z,14.00
2023-04-09T04:58:14.397Z,13.00
2023-04-09T04:59:14.374Z,16.00
2023-04-09T05:00:14.364Z,17.00
2023-04-09T05:01:14.462Z,18.00
2023-04-09T05:02:14.481Z,18.00
2023-04-09T05:03:14.470Z,15.00
2023-04-09T05:04:14.304Z,19.00
2023-04-09T05:05:14.312Z,23.00
2023-04-09T05:06:14.325Z,26.00
2023-04-09T05:07:14.360Z,26.00
2023-04-09T05:08:14.278Z,28.00
2023-04-09T05:09:14.272Z,34.00
2023-04-09T05:10:14.281Z,33.00
2023-04-09T05:11:14.248Z,32.00
2023-04-09T05:12:14.270Z,31.00
2023-04-09T05:13:14.243Z,35.00
2023-04-09T05:14:14.214Z,32.00
2023-04-09T05:15:14.212Z,27.00
2023-04-09T05:16:14.212Z,37.00
2023-04-09T05:17:14.176Z,37.00
2023-04-09T05:18:14.166Z,37.00
2023-04-09T05:19:14.178Z,36.00
2023-04-09T05:20:14.152Z,36.00
2023-04-09T05:21:14.144Z,38.00
2023-04-09T05:22:14.160Z,37.00
2023-04-09T05:23:14.173Z,38.00
2023-04-09T05:24:14.095Z,40.00
2023-04-09T05:25:14.122Z,43.00
2023-04-09T05:26:14.103Z,39.00
2023-04-09T05:27:14.133Z,46.00
2023-04-09T05:28:14.078Z,40.00
2023-04-09T05:29:14.163Z,39.00
2023-04-09T05:30:14.044Z,43.00
2023-04-09T05:31:14.064Z,42.00
2023-04-09T05:32:14.016Z,44.00
2023-04-09T05:33:14.012Z,43.00
2023-04-09T05:34:13.987Z,48.00
2023-04-09T05:35:14.046Z,43.00
2023-04-09T05:36:14.013Z,49.00
2023-04-09T05:37:13.971Z,62.00
2023-04-09T05:38:14.018Z,62.00
2023-04-09T05:39:13.986Z,58.00
2023-04-09T05:40:13.935Z,60.00
2023-04-09T05:41:13.962Z,70.00
2023-04-09T05:42:13.919Z,73.00
2023-04-09T05:43:13.937Z,69.00
2023-04-09T05:44:13.906Z,81.00
2023-04-09T05:45:13.894Z,95.00
2023-04-09T05:46:14.067Z,85.00
2023-04-09T05:47:13.861Z,98.00
2023-04-09T05:48:13.975Z,104.00
2023-04-09T05:49:13.853Z,102.00
2023-04-09T05:50:14.026Z,99.00
2023-04-09T05:51:13.829Z,105.00
2023-04-09T05:52:13.838Z,103.00
2023-04-09T05:53:13.830Z,106.00
2023-04-09T05:54:13.837Z,120.00
2023-04-09T05:55:13.785Z,120.00
2023-04-09T05:56:13.862Z,119.00
2023-04-09T05:57:13.915Z,117.00
2023-04-09T05:58:13.779Z,128.00
2023-04-09T05:59:13.728Z,130.00
2023-04-09T06:00:13.761Z,134.00
2023-04-09T06:01:13.730Z,137.00
2023-04-09T06:02:13.836Z,142.00
2023-04-09T06:03:13.837Z,127.00
2023-04-09T06:04:14.089Z,124.00
2023-04-09T06:05:13.681Z,149.00
2023-04-09T06:06:13.764Z,125.00
2023-04-09T06:07:13.802Z,123.00
2023-04-09T06:08:13.653Z,143.00
2023-04-09T06:09:13.752Z,141.00
2023-04-09T06:10:13.683Z,138.00
2023-04-09T06:11:13.623Z,128.00
2023-04-09T06:12:13.698Z,134.00
2023-04-09T06:13:13.623Z,124.00
2023-04-09T06:14:13.591Z,150.00
2023-04-09T06:15:13.574Z,152.00
2023-04-09T06:16:13.654Z,163.00
2023-04-09T06:17:13.562Z,155.00
2023-04-09T06:18:13.665Z,191.00
2023-04-09T06:19:13.574Z,181.00
2023-04-09T06:20:13.557Z,143.00
2023-04-09T06:21:13.575Z,181.00
2023-04-09T06:22:13.508Z,160.00
2023-04-09T06:23:13.524Z,152.00
2023-04-09T06:24:13.492Z,166.00
2023-04-09T06:25:13.478Z,158.00
2023-04-09T06:26:13.485Z,155.00
2023-04-09T06:27:13.458Z,154.00
2023-04-09T06:28:13.470Z,202.00
2023-04-09T06:29:13.432Z,202.00
2023-04-09T06:30:13.431Z,171.00
2023-04-09T06:31:13.468Z,209.00
2023-04-09T06:32:13.444Z,153.00
2023-04-09T06:33:13.415Z,176.00
2023-04-09T06:34:13.384Z,163.00
2023-04-09T06:35:13.426Z,240.00
2023-04-09T06:36:13.393Z,200.00
2023-04-09T06:37:13.364Z,204.00
2023-04-09T06:38:13.349Z,214.00
2023-04-09T06:39:13.324Z,254.00
2023-04-09T06:40:13.336Z,225.00
2023-04-09T06:41:13.312Z,186.00
2023-04-09T06:42:13.343Z,227.00
2023-04-09T06:43:13.308Z,201.00
2023-04-09T06:44:13.279Z,201.00
2023-04-09T06:45:13.275Z,189.00
2023-04-09T06:46:13.591Z,259.00
2023-04-09T06:47:13.240Z,196.00
2023-04-09T06:48:13.246Z,194.00
2023-04-09T06:49:13.244Z,210.00
2023-04-09T06:50:13.312Z,247.00
2023-04-09T06:51:13.199Z,279.00
2023-04-09T06:52:13.272Z,233.00
2023-04-09T06:53:13.218Z,254.00
2023-04-09T06:54:13.185Z,243.00
2023-04-09T06:55:13.174Z,235.00
2023-04-09T06:56:13.193Z,311.00
2023-04-09T06:57:13.148Z,268.00
2023-04-09T06:58:13.147Z,255.00
2023-04-09T06:59:13.127Z,285.00
2023-04-09T07:00:13.111Z,256.00
2023-04-09T07:01:13.149Z,296.00
2023-04-09T07:02:13.250Z,282.00
2023-04-09T07:03:13.168Z,295.00
2023-04-09T07:04:13.486Z,295.00
2023-04-09T07:05:13.182Z,292.00
2023-04-09T07:06:13.094Z,294.00
2023-04-09T07:07:13.034Z,291.00
2023-04-09T07:08:13.067Z,294.00
2023-04-09T07:09:13.001Z,294.00
2023-04-09T07:10:13.005Z,297.00
2023-04-09T07:11:12.978Z,292.00
2023-04-09T07:12:13.014Z,296.00
2023-04-09T07:13:12.990Z,294.00
2023-04-09T07:14:12.951Z,293.00
2023-04-09T07:15:12.989Z,294.00
2023-04-09T07:16:12.946Z,293.00
2023-04-09T07:17:12.915Z,293.00
2023-04-09T07:18:12.916Z,299.00
2023-04-09T07:19:12.939Z,296.00
2023-04-09T07:20:12.941Z,298.00
2023-04-09T07:21:12.883Z,297.00
2023-04-09T07:22:12.865Z,298.00
2023-04-09T07:23:12.858Z,298.00
2023-04-09T07:24:12.877Z,299.00
2023-04-09T07:25:12.833Z,302.00
2023-04-09T07:26:12.859Z,301.00
2023-04-09T07:27:12.818Z,302.00
2023-04-09T07:28:12.888Z,303.00
2023-04-09T07:29:12.790Z,303.00
2023-04-09T07:30:12.786Z,302.00
2023-04-09T07:31:12.790Z,307.00
2023-04-09T07:32:12.850Z,306.00
2023-04-09T07:33:12.755Z,307.00
2023-04-09T07:34:12.778Z,311.00
2023-04-09T07:35:12.739Z,310.00
2023-04-09T07:36:12.844Z,310.00
2023-04-09T07:37:12.987Z,307.00
2023-04-09T07:38:12.696Z,310.00
2023-04-09T07:39:12.690Z,308.00
2023-04-09T07:40:12.669Z,309.00
2023-04-09T07:41:12.656Z,310.00
2023-04-09T07:42:12.666Z,310.00
2023-04-09T07:43:12.653Z,309.00
2023-04-09T07:44:12.632Z,306.00
2023-04-09T07:45:12.712Z,308.00
2023-04-09T07:46:12.645Z,310.00
2023-04-09T07:47:12.588Z,306.00
2023-04-09T07:48:12.607Z,306.00
2023-04-09T07:49:12.589Z,308.00
2023-04-09T07:50:12.683Z,307.00
2023-04-09T07:51:12.538Z,306.00
2023-04-09T07:52:12.623Z,306.00
2023-04-09T07:53:12.575Z,304.00
2023-04-09T07:54:12.567Z,304.00
2023-04-09T07:55:12.527Z,303.00
2023-04-09T07:56:12.509Z,309.00
2023-04-09T07:57:12.497Z,308.00
2023-04-09T07:58:12.488Z,307.00
2023-04-09T07:59:12.589Z,305.00
2023-04-09T08:00:12.448Z,305.00
2023-04-09T08:01:12.455Z,306.00
2023-04-09T08:02:14.854Z,306.00
2023-04-09T08:03:12.643Z,306.00
2023-04-09T08:04:12.640Z,304.00
2023-04-09T08:05:12.462Z,304.00
2023-04-09T08:06:12.397Z,304.00
2023-04-09T08:07:12.389Z,303.00
2023-04-09T08:08:12.383Z,304.00
2023-04-09T08:09:12.347Z,305.00
2023-04-09T08:10:12.467Z,304.00
2023-04-09T08:11:12.345Z,300.00
2023-04-09T08:12:12.328Z,302.00
2023-04-09T08:13:12.336Z,302.00
2023-04-09T08:14:12.345Z,301.00
2023-04-09T08:15:12.357Z,299.00
2023-04-09T08:16:12.367Z,306.00
2023-04-09T08:17:12.260Z,303.00
2023-04-09T08:18:12.260Z,301.00
2023-04-09T08:19:12.363Z,301.00
2023-04-09T08:20:12.262Z,304.00
2023-04-09T08:21:12.227Z,300.00
2023-04-09T08:22:12.208Z,304.00
2023-04-09T08:23:12.276Z,301.00
2023-04-09T08:24:12.224Z,302.00
2023-04-09T08:25:12.212Z,303.00
2023-04-09T08:26:12.192Z,303.00
2023-04-09T08:27:12.315Z,304.00
2023-04-09T08:28:12.144Z,303.00
2023-04-09T08:29:12.161Z,299.00
2023-04-09T08:30:12.128Z,304.00
2023-04-09T08:31:12.145Z,305.00
2023-04-09T08:32:12.246Z,302.00
2023-04-09T08:33:12.180Z,299.00
2023-04-09T08:34:12.080Z,303.00
2023-04-09T08:35:12.248Z,303.00
2023-04-09T08:36:12.101Z,304.00
2023-04-09T08:37:12.082Z,302.00
2023-04-09T08:38:12.060Z,302.00
2023-04-09T08:39:12.025Z,305.00
2023-04-09T08:40:12.149Z,296.00
2023-04-09T08:41:14.009Z,296.00
2023-04-09T08:42:12.024Z,299.00
2023-04-09T08:43:12.213Z,299.00
2023-04-09T08:44:11.986Z,304.00
2023-04-09T08:45:11.964Z,299.00
2023-04-09T08:46:12.007Z,299.00
2023-04-09T08:47:12.008Z,296.00
2023-04-09T08:48:12.003Z,298.00
2023-04-09T08:49:11.974Z,299.00
2023-04-09T08:50:11.920Z,295.00
2023-04-09T08:51:11.946Z,298.00
2023-04-09T08:52:11.899Z,299.00
2023-04-09T08:53:12.642Z,300.00
2023-04-09T08:54:11.863Z,299.00
2023-04-09T08:55:11.932Z,298.00
2023-04-09T08:56:11.857Z,301.00
2023-04-09T08:57:11.856Z,297.00
2023-04-09T08:58:11.811Z,296.00
2023-04-09T08:59:11.790Z,300.00
2023-04-09T09:00:11.820Z,302.00
2023-04-09T09:01:12.523Z,300.00
2023-04-09T09:02:12.486Z,298.00
2023-04-09T09:03:11.862Z,297.00
2023-04-09T09:04:11.819Z,299.00
2023-04-09T09:05:11.758Z,297.00
2023-04-09T09:06:11.741Z,297.00
2023-04-09T09:07:11.728Z,298.00
2023-04-09T09:08:11.713Z,298.00
2023-04-09T09:09:11.689Z,295.00
2023-04-09T09:10:11.720Z,297.00
2023-04-09T09:11:11.683Z,295.00
2023-04-09T09:12:11.686Z,298.00
2023-04-09T09:13:11.668Z,294.00
2023-04-09T09:14:11.813Z,298.00
2023-04-09T09:15:11.629Z,297.00
2023-04-09T09:16:11.770Z,299.00
2023-04-09T09:17:11.634Z,296.00
2023-04-09T09:18:11.640Z,291.00
2023-04-09T09:19:11.628Z,289.00
2023-04-09T09:20:11.610Z,289.00
2023-04-09T09:21:11.553Z,292.00
2023-04-09T09:22:11.548Z,296.00
2023-04-09T09:23:11.533Z,289.00
2023-04-09T09:24:11.525Z,289.00
2023-04-09T09:25:11.531Z,294.00
2023-04-09T09:26:11.545Z,289.00
2023-04-09T09:27:11.498Z,291.00
2023-04-09T09:28:11.496Z,289.00
2023-04-09T09:29:11.483Z,289.00
2023-04-09T09:30:11.463Z,289.00
2023-04-09T09:31:11.510Z,289.00
2023-04-09T09:32:11.468Z,287.00
2023-04-09T09:33:11.432Z,289.00
2023-04-09T09:34:11.441Z,288.00
2023-04-09T09:35:11.395Z,293.00
2023-04-09T09:36:11.449Z,290.00
2023-04-09T09:37:11.386Z,287.00
2023-04-09T09:38:11.441Z,290.00
2023-04-09T09:39:11.390Z,300.00
2023-04-09T09:40:11.360Z,296.00
2023-04-09T09:41:11.336Z,296.00
2023-04-09T09:42:11.335Z,291.00
2023-04-09T09:43:13.393Z,298.00
2023-04-09T09:44:11.322Z,296.00
2023-04-09T09:45:11.324Z,289.00
2023-04-09T09:46:11.310Z,291.00
2023-04-09T09:47:11.340Z,291.00
2023-04-09T09:48:11.404Z,289.00
2023-04-09T09:49:11.266Z,299.00
2023-04-09T09:50:11.246Z,297.00
2023-04-09T09:51:11.300Z,296.00
2023-04-09T09:52:11.238Z,299.00
2023-04-09T09:53:11.249Z,299.00
2023-04-09T09:54:11.208Z,299.00
2023-04-09T09:55:11.199Z,294.00
2023-04-09T09:56:11.187Z,301.00
2023-04-09T09:57:11.208Z,300.00
2023-04-09T09:58:11.174Z,301.00
2023-04-09T09:59:11.147Z,298.00
2023-04-09T10:00:11.134Z,295.00
2023-04-09T10:01:11.181Z,296.00
2023-04-09T10:02:11.248Z,294.00
2023-04-09T10:03:11.172Z,298.00
2023-04-09T10:04:11.125Z,306.00
2023-04-09T10:05:11.090Z,311.00
2023-04-09T10:06:11.116Z,303.00
2023-04-09T10:07:11.048Z,297.00
2023-04-09T10:08:11.064Z,302.00
2023-04-09T10:09:11.032Z,302.00
2023-04-09T10:10:11.065Z,303.00
2023-04-09T10:11:11.020Z,305.00
2023-04-09T10:12:11.017Z,313.00
2023-04-09T10:13:11.021Z,309.00
2023-04-09T10:14:10.983Z,311.00
2023-04-09T10:15:11.007Z,315.00
2023-04-09T10:16:11.016Z,318.00
2023-04-09T10:17:10.951Z,320.00
2023-04-09T10:18:10.925Z,320.00
2023-04-09T10:19:10.947Z,326.00
2023-04-09T10:20:10.913Z,324.00
2023-04-09T10:21:10.915Z,319.00
2023-04-09T10:22:11.029Z,322.00
2023-04-09T10:23:10.883Z,335.00
2023-04-09T10:24:10.897Z,332.00
2023-04-09T10:25:10.873Z,334.00
2023-04-09T10:26:10.877Z,329.00
2023-04-09T10:27:10.843Z,342.00
2023-04-09T10:28:10.845Z,342.00
2023-04-09T10:29:10.810Z,342.00
2023-04-09T10:30:10.812Z,337.00
2023-04-09T10:31:10.862Z,335.00
2023-04-09T10:32:10.781Z,333.00
2023-04-09T10:33:10.776Z,338.00
2023-04-09T10:34:11.055Z,344.00
2023-04-09T10:35:10.765Z,338.00
2023-04-09T10:36:10.778Z,372.00
2023-04-09T10:37:10.820Z,387.00
2023-04-09T10:38:10.775Z,341.00
2023-04-09T10:39:10.704Z,313.00
2023-04-09T10:40:10.850Z,306.00
2023-04-09T10:41:10.739Z,341.00
2023-04-09T10:42:10.662Z,281.00
2023-04-09T10:43:10.674Z,276.00
2023-04-09T10:44:10.650Z,271.00
2023-04-09T10:45:10.696Z,271.00
2023-04-09T10:46:10.672Z,269.00
2023-04-09T10:47:10.622Z,265.00
2023-04-09T10:48:10.642Z,269.00
2023-04-09T10:49:10.615Z,256.00
2023-04-09T10:50:10.589Z,240.00
2023-04-09T10:51:10.603Z,261.00
2023-04-09T10:52:12.100Z,244.00
2023-04-09T10:53:10.555Z,249.00
2023-04-09T10:54:10.535Z,243.00
2023-04-09T10:55:10.568Z,239.00
2023-04-09T10:56:10.544Z,238.00
2023-04-09T10:57:10.511Z,240.00
2023-04-09T10:58:12.245Z,240.00
2023-04-09T10:59:10.580Z,241.00
2023-04-09T11:00:10.469Z,237.00
2023-04-09T11:01:10.572Z,235.00
2023-04-09T11:02:10.567Z,237.00
2023-04-09T11:03:10.632Z,241.00
2023-04-09T11:04:10.909Z,245.00
2023-04-09T11:05:10.429Z,258.00
2023-04-09T11:06:10.462Z,253.00
2023-04-09T11:07:10.580Z,246.00
2023-04-09T11:08:10.398Z,257.00
2023-04-09T11:09:10.414Z,263.00
2023-04-09T11:10:10.363Z,263.00
2023-04-09T11:11:10.373Z,269.00
2023-04-09T11:12:10.344Z,278.00
2023-04-09T11:13:10.343Z,278.00
2023-04-09T11:14:10.339Z,278.00
2023-04-09T11:15:10.314Z,281.00
2023-04-09T11:16:10.331Z,282.00
2023-04-09T11:17:10.297Z,279.00
2023-04-09T11:18:10.351Z,280.00
2023-04-09T11:19:10.288Z,279.00
2023-04-09T11:20:10.281Z,270.00
2023-04-09T11:21:10.255Z,272.00
2023-04-09T11:22:10.293Z,275.00
2023-04-09T11:23:10.227Z,278.00
2023-04-09T11:24:10.292Z,270.00
2023-04-09T11:25:10.207Z,272.00
2023-04-09T11:26:10.202Z,271.00
2023-04-09T11:27:10.185Z,272.00
2023-04-09T11:28:10.162Z,269.00
2023-04-09T11:29:10.205Z,267.00
2023-04-09T11:30:10.161Z,267.00
2023-04-09T11:31:10.184Z,269.00
2023-04-09T11:32:10.127Z,268.00
2023-04-09T11:33:10.206Z,269.00
2023-04-09T11:34:10.101Z,271.00
2023-04-09T11:35:10.097Z,265.00
2023-04-09T11:36:10.165Z,263.00
2023-04-09T11:37:10.084Z,267.00
2023-04-09T11:38:10.118Z,267.00
2023-04-09T11:39:10.049Z,265.00
2023-04-09T11:40:10.117Z,270.00
2023-04-09T11:41:10.036Z,273.00
2023-04-09T11:42:10.006Z,273.00
2023-04-09T11:43:10.008Z,275.00
2023-04-09T11:44:12.326Z,273.00
2023-04-09T11:45:10.006Z,274.00
2023-04-09T11:46:09.974Z,276.00
2023-04-09T11:47:09.977Z,277.00
2023-04-09T11:48:09.993Z,273.00
2023-04-09T11:49:09.958Z,273.00
2023-04-09T11:50:09.932Z,273.00
2023-04-09T11:51:09.928Z,273.00
2023-04-09T11:52:09.900Z,271.00
2023-04-09T11:53:09.944Z,274.00
2023-04-09T11:54:09.884Z,271.00
2023-04-09T11:55:09.874Z,269.00
2023-04-09T11:56:09.873Z,268.00
2023-04-09T11:57:09.853Z,266.00
2023-04-09T11:58:09.845Z,271.00
2023-04-09T11:59:09.824Z,271.00
2023-04-09T12:00:09.964Z,270.00
2023-04-09T12:01:09.832Z,267.00
2023-04-09T12:02:09.938Z,268.00
2023-04-09T12:03:10.067Z,270.00
2023-04-09T12:04:09.903Z,268.00
2023-04-09T12:05:09.906Z,272.00
2023-04-09T12:06:09.758Z,272.00
2023-04-09T12:07:09.788Z,271.00
2023-04-09T12:08:09.750Z,273.00
2023-04-09T12:09:09.726Z,279.00
2023-04-09T12:10:09.743Z,277.00
2023-04-09T12:11:09.723Z,275.00
2023-04-09T12:12:09.703Z,272.00
2023-04-09T12:13:09.741Z,275.00
2023-04-09T12:14:09.720Z,275.00
2023-04-09T12:15:09.650Z,273.00
2023-04-09T12:16:09.773Z,280.00
2023-04-09T12:17:09.642Z,278.00
2023-04-09T12:18:09.644Z,282.00
2023-04-09T12:19:09.623Z,280.00
2023-04-09T12:20:09.596Z,283.00
2023-04-09T12:21:09.655Z,281.00
2023-04-09T12:22:09.581Z,280.00
2023-04-09T12:23:09.659Z,283.00
2023-04-09T12:24:09.553Z,279.00
2023-04-09T12:25:09.547Z,280.00
2023-04-09T12:26:09.538Z,283.00
2023-04-09T12:27:09.556Z,282.00
2023-04-09T12:28:09.533Z,276.00
2023-04-09T12:29:09.531Z,271.00
2023-04-09T12:30:09.488Z,269.00
2023-04-09T12:31:09.493Z,269.00
2023-04-09T12:32:09.517Z,267.00
2023-04-09T12:33:10.939Z,269.00
2023-04-09T12:34:09.502Z,264.00
2023-04-09T12:35:09.470Z,269.00
2023-04-09T12:36:09.518Z,266.00
2023-04-09T12:37:09.497Z,270.00
2023-04-09T12:38:09.464Z,273.00
2023-04-09T12:39:09.397Z,274.00
2023-04-09T12:40:09.418Z,273.00
2023-04-09T12:41:09.369Z,211.00
2023-04-09T12:42:09.349Z,359.00
2023-04-09T12:43:09.367Z,263.00
2023-04-09T12:44:09.353Z,297.00
2023-04-09T12:45:09.335Z,359.00
2023-04-09T12:46:09.449Z,310.00
2023-04-09T12:47:09.306Z,301.00
2023-04-09T12:48:09.335Z,308.00